Time;durP1;ratioP1;P1;durP2;ratioP2;P2;SDS_P1;SDS_P2;PMS_P1;PMS_P2;Temp;Humidity;BMP_temperature;BMP_pressure;BME280_temperature;BME280_humidity;BME280_pressure;Samples;Min_cycle;Max_cycle;Signal;HPM_P1;HPM_P2
2022/12/23 00:00:38;;;;;;;;;;;;;;;9.34;100.00;100278.06;5079579;28;19920;-60
2022/12/23 00:03:03;;;;;;;;;;;;;;;9.36;100.00;100285.81;5084241;28;20437;-60
2022/12/23 00:05:34;;;;;;;;;;;;;;;9.36;100.00;100281.34;5084441;28;21109;-61
2022/12/23 00:07:59;;;;;;;;;;;;;;;9.38;100.00;100278.53;5080963;28;20007;-59
2022/12/23 00:10:24;;;;;;;;;;;;;;;9.39;100.00;100272.22;5084840;28;20002;-59
2022/12/23 00:15:33;;;;;;;;;;;;;;;9.42;100.00;100293.06;5088273;28;20282;-59
2022/12/23 00:17:58;;;;;;;;;;;;;;;9.42;100.00;100288.59;5080331;28;19917;-60
2022/12/23 00:20:23;;;;;;;;;;;;;;;9.45;100.00;100298.00;5082187;28;19920;-59
2022/12/23 00:23:03;;;;;;;;;;;;;;;9.44;100.00;100289.22;5087993;28;19924;-60
2022/12/23 00:25:41;;;;;;;;;;;;;;;9.44;100.00;100286.59;5082403;28;19920;-59
2022/12/23 00:28:10;;;;;;;;;;;;;;;9.43;100.00;100292.88;5099389;28;20387;-59
2022/12/23 00:30:35;;;;;;;;;;;;;;;9.45;100.00;100300.66;5086826;28;19924;-59
2022/12/23 00:33:01;;;;;;;;;;;;;;;9.46;100.00;100292.53;5086335;28;19916;-59
2022/12/23 00:35:28;;;;;;;;;;;;;;;9.44;100.00;100314.91;5091739;28;19949;-59
2022/12/23 00:37:53;;;;;;;;;;;;;;;9.43;100.00;100314.09;5085889;28;19966;-59
2022/12/23 00:43:02;;;;;;;;;;;;;;;9.43;100.00;100316.75;5087276;28;19954;-59
2022/12/23 00:45:27;;;;;;;;;;;;;;;9.42;100.00;100325.69;5089075;28;20380;-59
2022/12/23 00:50:37;;;;;;;;;;;;;;;9.39;100.00;100322.56;5089675;28;19919;-59
2022/12/23 00:53:03;;;;;;;;;;;;;;;9.42;100.00;100338.13;5084497;28;19966;-57
2022/12/23 00:55:28;;;;;;;;;;;;;;;9.42;100.00;100344.25;5088741;28;19958;-57
2022/12/23 00:57:54;;;;;;;;;;;;;;;9.41;100.00;100345.25;5087373;28;19916;-60
2022/12/23 01:00:19;;;;;;;;;;;;;;;9.40;100.00;100353.38;5094320;28;20405;-59
2022/12/23 01:05:37;;;;;;;;;;;;;;;9.40;100.00;100350.72;5090895;28;19923;-60
2022/12/23 01:08:07;;;;;;;;;;;;;;;9.38;100.00;100342.94;5095589;28;19919;-60
2022/12/23 01:10:36;;;;;;;;;;;;;;;9.38;100.00;100344.78;5082709;28;20336;-58
2022/12/23 01:13:01;;;;;;;;;;;;;;;9.38;100.00;100350.91;5091331;28;19916;-60
2022/12/23 01:15:26;;;;;;;;;;;;;;;9.39;100.00;100349.91;5088679;28;19935;-61
2022/12/23 01:17:51;;;;;;;;;;;;;;;9.36;100.00;100346.78;5099806;28;19927;-59
2022/12/23 01:20:17;;;;;;;;;;;;;;;9.39;100.00;100349.91;5088114;28;20077;-60
2022/12/23 01:22:42;;;;;;;;;;;;;;;9.35;100.00;100348.59;5085634;28;19920;-62
2022/12/23 01:25:07;;;;;;;;;;;;;;;9.34;100.00;100351.44;5087211;28;19931;-60
2022/12/23 01:27:32;;;;;;;;;;;;;;;9.34;100.00;100349.59;5083942;28;19912;-60
2022/12/23 01:29:58;;;;;;;;;;;;;;;9.30;100.00;100345.66;5083964;28;20388;-57
2022/12/23 01:32:23;;;;;;;;;;;;;;;9.30;100.00;100362.38;5090705;28;19912;-59
2022/12/23 01:34:48;;;;;;;;;;;;;;;9.31;100.00;100349.94;5082719;28;19938;-60
2022/12/23 01:37:13;;;;;;;;;;;;;;;9.33;100.00;100361.19;5095555;28;19955;-59
2022/12/23 01:39:38;;;;;;;;;;;;;;;9.35;100.00;100356.56;5087862;28;19935;-61
2022/12/23 01:44:51;;;;;;;;;;;;;;;9.33;100.00;100363.84;5089387;28;19991;-60
2022/12/23 01:47:20;;;;;;;;;;;;;;;9.34;100.00;100362.03;5084567;28;20441;-59
2022/12/23 01:49:46;;;;;;;;;;;;;;;9.32;100.00;100364.84;5087211;28;20388;-58
2022/12/23 01:52:12;;;;;;;;;;;;;;;9.30;100.00;100366.84;5085629;28;19916;-59
2022/12/23 01:54:37;;;;;;;;;;;;;;;9.29;100.00;100371.31;5086573;28;19966;-61
2022/12/23 01:57:03;;;;;;;;;;;;;;;9.27;100.00;100373.31;5089552;28;19920;-59
2022/12/23 02:04:56;;;;;;;;;;;;;;;9.28;100.00;100390.88;5083107;28;19932;-59
2022/12/23 02:10:06;;;;;;;;;;;;;;;9.29;100.00;100399.66;5082303;28;19923;-60
2022/12/23 02:12:40;;;;;;;;;;;;;;;9.28;100.00;100401.47;5085117;28;19920;-60
2022/12/23 02:17:56;;;;;;;;;;;;;;;9.34;100.00;100396.47;5086875;28;20012;-61
2022/12/23 02:20:40;;;;;;;;;;;;;;;9.31;100.00;100397.66;5091030;28;19951;-60
2022/12/23 02:23:05;;;;;;;;;;;;;;;9.29;100.00;100397.81;5086460;28;19921;-60
2022/12/23 02:25:30;;;;;;;;;;;;;;;9.26;100.00;100397.34;5083545;28;19938;-60
2022/12/23 02:28:14;;;;;;;;;;;;;;;9.29;100.00;100403.13;5087975;28;19920;-61
2022/12/23 02:31:00;;;;;;;;;;;;;;;9.30;100.00;100406.59;5084669;28;20390;-61
2022/12/23 02:33:25;;;;;;;;;;;;;;;9.30;100.00;100415.38;5091284;28;19920;-59
2022/12/23 02:35:56;;;;;;;;;;;;;;;9.29;100.00;100413.72;5088710;28;19917;-59
2022/12/23 02:38:25;;;;;;;;;;;;;;;9.33;100.00;100419.50;5081539;28;19955;-60
2022/12/23 02:41:12;;;;;;;;;;;;;;;9.32;100.00;100433.75;5087673;28;19923;-59
2022/12/23 02:43:41;;;;;;;;;;;;;;;9.30;100.00;100441.88;5084378;28;20031;-60
2022/12/23 02:46:10;;;;;;;;;;;;;;;9.33;100.00;100440.69;5084322;28;19916;-58
2022/12/23 02:48:35;;;;;;;;;;;;;;;9.33;100.00;100440.69;5088842;28;19916;-59
2022/12/23 02:51:01;;;;;;;;;;;;;;;9.34;100.00;100452.13;5088559;28;19923;-60
2022/12/23 02:53:32;;;;;;;;;;;;;;;9.32;100.00;100462.91;5085111;28;20497;-61
2022/12/23 02:55:58;;;;;;;;;;;;;;;9.30;100.00;100463.06;5088695;28;19920;-60
2022/12/23 02:58:27;;;;;;;;;;;;;;;9.36;100.00;100464.19;5082042;28;19927;-60
2022/12/23 03:00:54;;;;;;;;;;;;;;;9.32;100.00;100468.19;5083762;28;19927;-62
2022/12/23 03:03:20;;;;;;;;;;;;;;;9.29;100.00;100464.06;5087398;28;20311;-57
2022/12/23 03:05:46;;;;;;;;;;;;;;;9.29;100.00;100465.88;5086364;28;19916;-59
2022/12/23 03:08:32;;;;;;;;;;;;;;;9.29;100.00;100460.59;5083884;28;19923;-60
2022/12/23 03:11:05;;;;;;;;;;;;;;;9.28;100.00;100464.25;5084331;28;19916;-60
2022/12/23 03:13:37;;;;;;;;;;;;;;;9.25;100.00;100465.41;5089142;28;19974;-58
2022/12/23 03:16:16;;;;;;;;;;;;;;;9.24;100.00;100460.25;5088532;28;19984;-60
2022/12/23 03:18:50;;;;;;;;;;;;;;;9.24;100.00;100454.94;5087321;28;19920;-60
2022/12/23 03:21:19;;;;;;;;;;;;;;;9.22;100.00;100460.41;5083102;28;20401;-58
2022/12/23 03:23:44;;;;;;;;;;;;;;;9.21;100.00;100458.78;5088267;28;19916;-60
2022/12/23 03:26:09;;;;;;;;;;;;;;;9.22;100.00;100454.28;5084646;28;19916;-60
2022/12/23 03:28:40;;;;;;;;;;;;;;;9.20;100.00;100461.59;5083428;28;20282;-58
2022/12/23 03:31:08;;;;;;;;;;;;;;;9.22;100.00;100454.28;5083660;28;19977;-59
2022/12/23 03:33:36;;;;;;;;;;;;;;;9.28;100.00;100464.25;5080312;28;19916;-60
2022/12/23 03:36:06;;;;;;;;;;;;;;;9.25;100.00;100457.47;5090608;28;20406;-60
2022/12/23 03:38:32;;;;;;;;;;;;;;;9.25;100.00;100459.25;5082489;28;19952;-60
2022/12/23 03:41:00;;;;;;;;;;;;;;;9.22;100.00;100459.59;5080826;28;19931;-59
2022/12/23 03:43:46;;;;;;;;;;;;;;;9.24;100.00;100462.91;5084872;28;19920;-61
2022/12/23 03:46:14;;;;;;;;;;;;;;;9.25;100.00;100456.59;5085010;28;20220;-60
2022/12/23 03:48:42;;;;;;;;;;;;;;;9.24;100.00;100457.59;5088600;28;20006;-60
2022/12/23 03:51:12;;;;;;;;;;;;;;;9.22;100.00;100456.94;5087483;28;19950;-60
2022/12/23 03:53:41;;;;;;;;;;;;;;;9.22;100.00;100462.25;5082568;28;20562;-60
2022/12/23 03:56:12;;;;;;;;;;;;;;;9.19;100.00;100463.41;5084378;28;19916;-59
2022/12/23 03:58:43;;;;;;;;;;;;;;;9.20;100.00;100466.91;5085203;28;20361;-57
2022/12/23 04:01:12;;;;;;;;;;;;;;;9.18;100.00;100469.72;5083029;28;19916;-60
2022/12/23 04:03:44;;;;;;;;;;;;;;;9.20;100.00;100474.84;5086996;28;20010;-60
2022/12/23 04:06:11;;;;;;;;;;;;;;;9.17;100.00;100472.53;5081888;28;19912;-58
2022/12/23 04:08:37;;;;;;;;;;;;;;;9.15;100.00;100482.47;5087792;28;19922;-56
2022/12/23 04:11:02;;;;;;;;;;;;;;;9.14;100.00;100483.47;5085590;28;20004;-59
2022/12/23 04:13:28;;;;;;;;;;;;;;;9.13;100.00;100481.81;5082786;28;20394;-60
2022/12/23 04:15:53;;;;;;;;;;;;;;;9.14;100.00;100486.94;5085063;28;19919;-60
2022/12/23 04:18:19;;;;;;;;;;;;;;;9.12;100.00;100488.13;5086290;28;19967;-61
2022/12/23 04:20:44;;;;;;;;;;;;;;;9.12;100.00;100485.47;5088377;28;20379;-60
2022/12/23 04:23:09;;;;;;;;;;;;;;;9.12;100.00;100485.47;5078190;28;19920;-60
2022/12/23 04:25:34;;;;;;;;;;;;;;;9.11;100.00;100489.13;5087422;28;19927;-62
2022/12/23 04:27:59;;;;;;;;;;;;;;;9.09;100.00;100491.09;5084597;28;19924;-59
2022/12/23 04:30:25;;;;;;;;;;;;;;;9.07;100.00;100493.09;5079411;28;19912;-60
2022/12/23 04:32:50;;;;;;;;;;;;;;;9.08;100.00;100510.66;5082371;28;19947;-58
2022/12/23 04:35:15;;;;;;;;;;;;;;;9.10;100.00;100506.00;5078852;28;19938;-62
2022/12/23 04:37:40;;;;;;;;;;;;;;;9.10;100.00;100513.94;5083776;28;19916;-59
2022/12/23 04:40:05;;;;;;;;;;;;;;;9.10;100.00;100516.59;5086500;28;19920;-60
2022/12/23 04:42:31;;;;;;;;;;;;;;;9.10;100.00;100513.94;5083998;28;19916;-59
2022/12/23 04:44:56;;;;;;;;;;;;;;;9.11;100.00;100512.97;5084262;28;19916;-59
2022/12/23 04:47:21;;;;;;;;;;;;;;;9.10;100.00;100508.66;5081946;28;19923;-61
2022/12/23 04:49:46;;;;;;;;;;;;;;;9.10;100.00;100503.34;5081109;28;19923;-59
2022/12/23 04:52:11;;;;;;;;;;;;;;;9.09;100.00;100496.41;5081266;28;20291;-60
2022/12/23 04:54:37;;;;;;;;;;;;;;;9.07;100.00;100488.63;5087762;28;20390;-60
2022/12/23 04:57:02;;;;;;;;;;;;;;;9.06;100.00;100486.97;5086503;28;19920;-59
2022/12/23 04:59:27;;;;;;;;;;;;;;;9.05;100.00;100473.91;5089453;28;19916;-58
2022/12/23 05:01:52;;;;;;;;;;;;;;;9.05;100.00;100487.97;5081711;28;20522;-60
2022/12/23 05:04:18;;;;;;;;;;;;;;;9.04;100.00;100478.38;5080614;28;19920;-60
2022/12/23 05:06:43;;;;;;;;;;;;;;;9.05;100.00;100476.56;5084105;28;19951;-60
2022/12/23 05:09:08;;;;;;;;;;;;;;;9.03;100.00;100478.53;5079161;28;19916;-60
2022/12/23 05:11:33;;;;;;;;;;;;;;;9.02;100.00;100480.38;5083563;28;19962;-60
2022/12/23 05:13:58;;;;;;;;;;;;;;;9.02;100.00;100479.53;5087057;28;19986;-59
2022/12/23 05:16:24;;;;;;;;;;;;;;;9.01;100.00;100478.72;5083943;28;19927;-60
2022/12/23 05:18:49;;;;;;;;;;;;;;;9.02;100.00;100490.13;5077911;28;19917;-59
2022/12/23 05:21:14;;;;;;;;;;;;;;;9.00;100.00;100499.09;5086404;28;19920;-61
2022/12/23 05:23:39;;;;;;;;;;;;;;;8.99;100.00;100505.38;5091081;28;19973;-60
2022/12/23 05:26:04;;;;;;;;;;;;;;;9.00;100.00;100511.50;5085450;28;19913;-60
2022/12/23 05:28:30;;;;;;;;;;;;;;;9.00;100.00;100514.97;5081777;28;19978;-59
2022/12/23 05:31:02;;;;;;;;;;;;;;;9.00;100.00;100517.63;5086271;28;20003;-57
2022/12/23 05:33:28;;;;;;;;;;;;;;;8.98;100.00;100513.50;5088548;28;19916;-59
2022/12/23 05:35:53;;;;;;;;;;;;;;;8.98;100.00;100516.13;5087609;28;19965;-59
2022/12/23 05:38:18;;;;;;;;;;;;;;;8.96;100.00;100521.59;5086389;28;19912;-61
2022/12/23 05:40:44;;;;;;;;;;;;;;;8.96;100.00;100526.91;5091321;28;19916;-60
2022/12/23 05:43:09;;;;;;;;;;;;;;;8.95;100.00;100527.88;5081567;28;19923;-60
2022/12/23 05:45:34;;;;;;;;;;;;;;;8.94;100.00;100531.50;5084602;28;19977;-59
2022/12/23 05:47:59;;;;;;;;;;;;;;;8.94;100.00;100542.09;5081159;28;20510;-60
2022/12/23 05:50:25;;;;;;;;;;;;;;;8.96;100.00;100534.84;5084681;28;20375;-60
2022/12/23 05:52:50;;;;;;;;;;;;;;;8.94;100.00;100535.97;5090133;28;19919;-59
2022/12/23 05:55:15;;;;;;;;;;;;;;;8.94;100.00;100526.22;5087677;28;20295;-60
2022/12/23 05:57:40;;;;;;;;;;;;;;;8.96;100.00;100524.25;5082615;28;19912;-60
2022/12/23 06:00:06;;;;;;;;;;;;;;;8.95;100.00;100521.75;5086260;28;19923;-62
2022/12/23 06:02:31;;;;;;;;;;;;;;;8.94;100.00;100520.09;5090452;28;19928;-61
2022/12/23 06:04:56;;;;;;;;;;;;;;;8.93;100.00;100513.13;5089187;28;20438;-60
2022/12/23 06:07:21;;;;;;;;;;;;;;;8.94;100.00;100515.63;5088927;28;19915;-62
2022/12/23 06:09:46;;;;;;;;;;;;;;;8.93;100.00;100508.66;5082344;28;20307;-57
2022/12/23 06:12:12;;;;;;;;;;;;;;;8.91;100.00;100500.06;5086485;28;20303;-60
2022/12/23 06:14:37;;;;;;;;;;;;;;;8.90;100.00;100506.38;5085124;28;19916;-59
2022/12/23 06:17:02;;;;;;;;;;;;;;;8.90;100.00;100502.88;5087137;28;20566;-59
2022/12/23 06:19:28;;;;;;;;;;;;;;;8.91;100.00;100492.13;5086361;28;20439;-60
2022/12/23 06:21:53;;;;;;;;;;;;;;;8.89;100.00;100501.22;5088974;28;19923;-57
2022/12/23 06:24:18;;;;;;;;;;;;;;;8.88;100.00;100495.13;5086047;28;20468;-60
2022/12/23 06:26:43;;;;;;;;;;;;;;;8.87;100.00;100485.53;5088193;28;19916;-62
2022/12/23 06:29:09;;;;;;;;;;;;;;;8.86;100.00;100496.28;5083198;28;19970;-61
2022/12/23 06:31:34;;;;;;;;;;;;;;;8.83;100.00;100494.78;5080176;28;19919;-64
2022/12/23 06:33:59;;;;;;;;;;;;;;;8.88;100.00;100500.41;5082895;28;19923;-57
2022/12/23 06:36:24;;;;;;;;;;;;;;;8.87;100.00;100504.06;5082862;28;19921;-60
2022/12/23 06:38:50;;;;;;;;;;;;;;;8.87;100.00;100498.75;5085205;28;19963;-57
2022/12/23 06:41:15;;;;;;;;;;;;;;;8.87;100.00;100501.41;5085544;28;19916;-62
2022/12/23 06:43:40;;;;;;;;;;;;;;;8.89;100.00;100503.88;5087461;28;19920;-62
2022/12/23 06:46:06;;;;;;;;;;;;;;;8.88;100.00;100515.47;5067890;28;19916;-61
2022/12/23 06:48:31;;;;;;;;;;;;;;;8.87;100.00;100514.66;5083811;28;19923;-60
2022/12/23 06:50:56;;;;;;;;;;;;;;;8.86;100.00;100522.75;5082399;28;19994;-60
2022/12/23 06:53:21;;;;;;;;;;;;;;;8.85;100.00;100516.63;5083897;28;20003;-58
2022/12/23 06:55:46;;;;;;;;;;;;;;;8.85;100.00;100527.22;5078805;28;20633;-62
2022/12/23 06:58:12;;;;;;;;;;;;;;;8.85;100.00;100531.69;5089428;28;20422;-60
2022/12/23 07:00:37;;;;;;;;;;;;;;;8.84;100.00;100544.09;5080410;28;19931;-60
2022/12/23 07:03:02;;;;;;;;;;;;;;;8.84;100.00;100560.00;5087214;28;21838;-60
2022/12/23 07:05:27;;;;;;;;;;;;;;;8.84;100.00;100567.94;5085399;28;19919;-60
2022/12/23 07:07:52;;;;;;;;;;;;;;;8.83;100.00;100574.22;5096327;28;19916;-59
2022/12/23 07:10:18;;;;;;;;;;;;;;;8.83;100.00;100579.53;5096183;28;19994;-59
2022/12/23 07:12:43;;;;;;;;;;;;;;;8.82;100.00;100575.22;5081943;28;19936;-63
2022/12/23 07:15:08;;;;;;;;;;;;;;;8.82;100.00;100569.94;5081012;28;19916;-63
2022/12/23 07:17:33;;;;;;;;;;;;;;;8.83;100.00;100571.59;5088365;28;19916;-59
2022/12/23 07:19:59;;;;;;;;;;;;;;;8.84;100.00;100562.66;5078308;28;19919;-60
2022/12/23 07:22:24;;;;;;;;;;;;;;;8.85;100.00;100559.00;5076883;28;19920;-60
2022/12/23 07:24:49;;;;;;;;;;;;;;;8.85;100.00;100551.06;5078900;28;19919;-62
2022/12/23 07:27:15;;;;;;;;;;;;;;;8.87;100.00;100558.84;5088738;28;20478;-60
2022/12/23 07:29:40;;;;;;;;;;;;;;;8.87;100.00;100553.53;5083191;28;19916;-59
2022/12/23 07:32:05;;;;;;;;;;;;;;;8.88;100.00;100549.91;5082865;28;19923;-60
2022/12/23 07:34:30;;;;;;;;;;;;;;;8.89;100.00;100552.38;5084991;28;20000;-60
2022/12/23 07:36:55;;;;;;;;;;;;;;;8.89;100.00;100547.06;5086099;28;20292;-61
2022/12/23 07:39:21;;;;;;;;;;;;;;;8.89;100.00;100541.78;5078107;28;19943;-58
2022/12/23 07:41:46;;;;;;;;;;;;;;;8.90;100.00;100545.25;5084638;28;20019;-60
2022/12/23 07:44:11;;;;;;;;;;;;;;;8.92;100.00;100553.84;5082246;28;19927;-59
2022/12/23 07:46:37;;;;;;;;;;;;;;;8.91;100.00;100553.03;5087810;28;19939;-59
2022/12/23 07:49:02;;;;;;;;;;;;;;;8.93;100.00;100542.28;5081848;28;19912;-62
2022/12/23 07:51:27;;;;;;;;;;;;;;;8.93;100.00;100545.75;5081611;28;19957;-60
2022/12/23 07:53:52;;;;;;;;;;;;;;;8.94;100.00;100535.97;5085579;28;20303;-62
2022/12/23 07:56:18;;;;;;;;;;;;;;;8.92;100.00;100544.09;5081338;28;19916;-58
2022/12/23 07:58:46;;;;;;;;;;;;;;;8.91;100.00;100539.78;5083840;28;20294;-61
2022/12/23 08:01:12;;;;;;;;;;;;;;;8.90;100.00;100551.38;5078341;28;20011;-59
2022/12/23 08:03:37;;;;;;;;;;;;;;;8.91;100.00;100553.03;5082870;28;20011;-59
2022/12/23 08:06:03;;;;;;;;;;;;;;;8.90;100.00;100535.50;5100739;28;19920;-59
2022/12/23 08:08:29;;;;;;;;;;;;;;;8.90;100.00;100537.31;5086412;28;19917;-61
2022/12/23 08:10:59;;;;;;;;;;;;;;;8.91;100.00;100547.75;5082021;28;19912;-60
2022/12/23 08:13:24;;;;;;;;;;;;;;;8.90;100.00;100534.66;5085135;28;19924;-58
2022/12/23 08:15:53;;;;;;;;;;;;;;;8.90;100.00;100532.03;5089816;28;19966;-60
2022/12/23 08:18:18;;;;;;;;;;;;;;;8.90;100.00;100530.19;5087787;28;20388;-59
2022/12/23 08:20:43;;;;;;;;;;;;;;;8.90;100.00;100522.25;5087493;28;19923;-60
2022/12/23 08:23:08;;;;;;;;;;;;;;;8.93;100.00;100513.97;5082484;28;19916;-60
2022/12/23 08:25:33;;;;;;;;;;;;;;;8.95;100.00;100525.22;5083328;28;19913;-58
2022/12/23 08:27:58;;;;;;;;;;;;;;;8.97;100.00;100525.06;5079346;28;19959;-59
2022/12/23 08:30:24;;;;;;;;;;;;;;;8.98;100.00;100509.03;5095658;28;19958;-60
2022/12/23 08:32:49;;;;;;;;;;;;;;;8.98;100.00;100500.25;5086070;28;19916;-60
2022/12/23 08:35:14;;;;;;;;;;;;;;;8.98;100.00;100518.78;5079717;28;19966;-59
2022/12/23 08:37:39;;;;;;;;;;;;;;;8.98;100.00;100527.56;5081248;28;19913;-61
2022/12/23 08:40:05;;;;;;;;;;;;;;;8.96;100.00;100524.25;5077940;28;19997;-59
2022/12/23 08:42:30;;;;;;;;;;;;;;;8.95;100.00;100521.75;5082707;28;19942;-60
2022/12/23 08:44:55;;;;;;;;;;;;;;;8.95;100.00;100519.91;5084126;28;19912;-58
2022/12/23 08:47:20;;;;;;;;;;;;;;;8.93;100.00;100524.56;5083801;28;19946;-57
2022/12/23 08:49:46;;;;;;;;;;;;;;;8.93;100.00;100511.31;5083192;28;19916;-61
2022/12/23 08:52:12;;;;;;;;;;;;;;;8.93;100.00;100513.97;5086796;28;19959;-59
2022/12/23 08:54:37;;;;;;;;;;;;;;;8.93;100.00;100499.91;5088468;28;19917;-60
2022/12/23 08:57:02;;;;;;;;;;;;;;;8.93;100.00;100494.59;5083916;28;20116;-60
2022/12/23 08:59:27;;;;;;;;;;;;;;;8.93;100.00;100486.66;5088132;28;19920;-58
2022/12/23 09:01:52;;;;;;;;;;;;;;;8.93;100.00;100484.00;5091224;28;19938;-59
2022/12/23 09:04:17;;;;;;;;;;;;;;;8.93;100.00;100489.31;5087647;28;20387;-59
2022/12/23 09:06:44;;;;;;;;;;;;;;;8.92;100.00;100483.19;5087968;28;19923;-59
2022/12/23 09:09:11;;;;;;;;;;;;;;;8.92;100.00;100485.84;5087041;28;20337;-58
2022/12/23 09:11:36;;;;;;;;;;;;;;;8.92;100.00;100483.19;5093914;28;19915;-59
2022/12/23 09:14:02;;;;;;;;;;;;;;;8.92;100.00;100477.88;5083674;28;19912;-58
2022/12/23 09:16:28;;;;;;;;;;;;;;;8.92;100.00;100471.75;5088935;28;19912;-57
2022/12/23 09:18:53;;;;;;;;;;;;;;;8.93;100.00;100476.06;5087155;28;19920;-58
2022/12/23 09:21:19;;;;;;;;;;;;;;;8.94;100.00;100470.59;5086514;28;19943;-59
2022/12/23 09:23:45;;;;;;;;;;;;;;;8.94;100.00;100467.13;5088184;28;19940;-61
2022/12/23 09:26:15;;;;;;;;;;;;;;;8.95;100.00;100471.44;5088623;28;20015;-59
2022/12/23 09:28:40;;;;;;;;;;;;;;;8.96;100.00;100455.41;5081716;28;20007;-57
2022/12/23 09:31:07;;;;;;;;;;;;;;;8.96;100.00;100455.41;5084705;28;20623;-59
2022/12/23 09:33:32;;;;;;;;;;;;;;;9.00;100.00;100455.88;5099009;28;19962;-59
2022/12/23 09:36:01;;;;;;;;;;;;;;;9.03;100.00;100447.59;5095128;28;19920;-58
2022/12/23 09:38:26;;;;;;;;;;;;;;;9.05;100.00;100450.06;5084971;28;19923;-59
2022/12/23 09:40:51;;;;;;;;;;;;;;;9.07;100.00;100448.06;5085442;28;19916;-60
2022/12/23 09:43:16;;;;;;;;;;;;;;;9.08;100.00;100432.00;5082236;28;19920;-60
2022/12/23 09:46:00;;;;;;;;;;;;;;;9.11;100.00;100431.66;5087629;28;19916;-58
2022/12/23 09:48:27;;;;;;;;;;;;;;;9.11;100.00;100434.31;5085500;28;20264;-59
2022/12/23 09:50:52;;;;;;;;;;;;;;;9.08;100.00;100433.84;5083723;28;20039;-57
2022/12/23 09:53:19;;;;;;;;;;;;;;;9.05;100.00;100423.59;5088076;28;20375;-60
2022/12/23 09:55:53;;;;;;;;;;;;;;;9.07;100.00;100424.22;5087782;28;19920;-60
2022/12/23 09:58:41;;;;;;;;;;;;;;;9.09;100.00;100427.53;5091151;28;20295;-59
2022/12/23 10:01:06;;;;;;;;;;;;;;;9.07;100.00;100424.22;5088560;28;20308;-57
2022/12/23 10:03:39;;;;;;;;;;;;;;;9.06;100.00;100417.28;5085871;28;19957;-59
2022/12/23 10:06:09;;;;;;;;;;;;;;;9.02;100.00;100424.75;5083465;28;19961;-57
2022/12/23 10:08:37;;;;;;;;;;;;;;;8.99;100.00;100423.28;5077365;28;19966;-59
2022/12/23 10:11:11;;;;;;;;;;;;;;;8.98;100.00;100424.28;5081454;28;19943;-60
2022/12/23 10:13:51;;;;;;;;;;;;;;;8.97;100.00;100416.50;5083308;28;19969;-60
2022/12/23 10:16:22;;;;;;;;;;;;;;;8.96;100.00;100406.88;5083077;28;20466;-60
2022/12/23 10:19:00;;;;;;;;;;;;;;;8.96;100.00;100397.13;5083214;28;19924;-59
2022/12/23 10:21:33;;;;;;;;;;;;;;;8.96;100.00;100393.63;5087114;28;19916;-59
2022/12/23 10:24:01;;;;;;;;;;;;;;;8.95;100.00;100392.81;5087735;28;20304;-59
2022/12/23 10:26:31;;;;;;;;;;;;;;;8.98;100.00;100389.00;5083945;28;19950;-59
2022/12/23 10:29:16;;;;;;;;;;;;;;;8.97;100.00;100387.38;5089310;28;19916;-60
2022/12/23 10:31:48;;;;;;;;;;;;;;;8.98;100.00;100378.44;5084818;28;19924;-59
2022/12/23 10:34:18;;;;;;;;;;;;;;;8.95;100.00;100373.44;5088302;28;20356;-60
2022/12/23 10:36:48;;;;;;;;;;;;;;;8.94;100.00;100377.09;5091412;28;19955;-61
2022/12/23 10:39:34;;;;;;;;;;;;;;;8.94;100.00;100371.78;5087664;28;20363;-59
2022/12/23 10:42:11;;;;;;;;;;;;;;;8.94;100.00;100362.03;5067286;28;19955;-59
2022/12/23 10:44:54;;;;;;;;;;;;;;;8.94;100.00;100362.03;5085584;28;19924;-59
2022/12/23 10:47:30;;;;;;;;;;;;;;;8.96;100.00;100349.47;5081760;28;19916;-58
2022/12/23 10:50:07;;;;;;;;;;;;;;;8.99;100.00;100359.72;5076254;28;20449;-59
2022/12/23 10:52:34;;;;;;;;;;;;;;;9.00;100.00;100349.94;5085546;28;19923;-58
2022/12/23 10:54:59;;;;;;;;;;;;;;;9.00;100.00;100337.53;5078312;28;19924;-61
2022/12/23 10:57:24;;;;;;;;;;;;;;;9.03;100.00;100332.88;5082077;28;19916;-59
2022/12/23 10:59:50;;;;;;;;;;;;;;;9.06;100.00;100321.94;5086776;28;20458;-60
2022/12/23 11:02:33;;;;;;;;;;;;;;;9.06;100.00;100320.13;5081715;28;19920;-60
2022/12/23 11:04:58;;;;;;;;;;;;;;;9.08;100.00;100310.16;5085895;28;19916;-59
2022/12/23 11:07:25;;;;;;;;;;;;;;;9.11;100.00;100303.69;5077991;28;20048;-61
2022/12/23 11:09:58;;;;;;;;;;;;;;;9.12;100.00;100306.16;5079311;28;20303;-60
2022/12/23 11:12:24;;;;;;;;;;;;;;;9.16;100.00;100298.69;5087127;28;20319;-60
2022/12/23 11:14:51;;;;;;;;;;;;;;;9.17;100.00;100295.03;5079276;28;19916;-61
2022/12/23 11:17:18;;;;;;;;;;;;;;;9.19;100.00;100299.16;5088874;28;19985;-60
2022/12/23 11:19:43;;;;;;;;;;;;;;;9.22;100.00;100303.28;5088962;28;19916;-60
2022/12/23 11:22:19;;;;;;;;;;;;;;;9.20;100.00;100310.59;5087967;28;19919;-60
2022/12/23 11:24:45;;;;;;;;;;;;;;;9.19;100.00;100299.16;5085799;28;19923;-57
2022/12/23 11:27:12;;;;;;;;;;;;;;;9.18;100.00;100299.34;5085088;28;19920;-60
2022/12/23 11:29:42;;;;;;;;;;;;;;;9.18;100.00;100288.75;5086575;28;19916;-59
2022/12/23 11:32:34;;;;;;;;;;;;;;;9.18;100.00;100272.84;5080606;28;19926;-56
2022/12/23 11:34:59;;;;;;;;;;;;;;;9.18;100.00;100265.72;5082781;28;19923;-60
2022/12/23 11:37:28;;;;;;;;;;;;;;;9.19;100.00;100266.56;5086853;28;19922;-60
2022/12/23 11:39:54;;;;;;;;;;;;;;;9.20;100.00;100261.06;5083791;28;20006;-60
2022/12/23 11:42:27;;;;;;;;;;;;;;;9.23;100.00;100270.50;5076295;28;20010;-60
2022/12/23 11:44:53;;;;;;;;;;;;;;;9.25;100.00;100261.41;5087930;28;20465;-62
2022/12/23 11:47:21;;;;;;;;;;;;;;;9.27;100.00;100251.44;5084818;28;20431;-61
2022/12/23 11:49:48;;;;;;;;;;;;;;;9.27;100.00;100235.53;5083380;28;19930;-59
2022/12/23 11:52:15;;;;;;;;;;;;;;;9.29;100.00;100238.84;5082581;28;20471;-59
2022/12/23 11:54:48;;;;;;;;;;;;;;;9.30;100.00;100229.88;5082042;28;19920;-61
2022/12/23 11:57:16;;;;;;;;;;;;;;;9.31;100.00;100214.81;5091325;28;20067;-61
2022/12/23 11:59:42;;;;;;;;;;;;;;;9.31;100.00;100214.81;5082292;28;20260;-62
2022/12/23 12:02:22;;;;;;;;;;;;;;;9.31;100.00;100212.16;5072704;28;19935;-60
2022/12/23 12:04:53;;;;;;;;;;;;;;;9.30;100.00;100200.75;5083449;28;19920;-60
2022/12/23 12:07:18;;;;;;;;;;;;;;;9.32;100.00;100185.50;5081525;28;19954;-60
2022/12/23 12:09:44;;;;;;;;;;;;;;;9.32;100.00;100179.38;5081946;28;19955;-60
2022/12/23 12:12:15;;;;;;;;;;;;;;;9.29;100.00;100164.66;5081748;28;20645;-60
2022/12/23 12:14:42;;;;;;;;;;;;;;;9.28;100.00;100149.75;5081557;28;20023;-60
2022/12/23 12:17:07;;;;;;;;;;;;;;;9.26;100.00;100148.28;5079123;28;19920;-58
2022/12/23 12:19:42;;;;;;;;;;;;;;;9.27;100.00;100149.94;5077449;28;20413;-59
2022/12/23 12:22:24;;;;;;;;;;;;;;;9.26;100.00;100143.81;5071853;28;19920;-59
2022/12/23 12:24:51;;;;;;;;;;;;;;;9.23;100.00;100136.19;5083046;28;20607;-57
2022/12/23 12:27:19;;;;;;;;;;;;;;;9.21;100.00;100138.22;5081328;28;19916;-60
2022/12/23 12:29:51;;;;;;;;;;;;;;;9.22;100.00;100137.22;5089568;28;19916;-60
2022/12/23 12:32:29;;;;;;;;;;;;;;;9.20;100.00;100136.56;5096212;28;20298;-60
2022/12/23 12:35:26;;;;;;;;;;;;;;;9.20;100.00;100133.09;5107259;28;20462;-59
2022/12/23 12:37:56;;;;;;;;;;;;;;;9.22;100.00;100109.88;5082098;28;19912;-59
2022/12/23 12:40:24;;;;;;;;;;;;;;;9.20;100.00;100091.53;5090660;28;19912;-58
2022/12/23 12:42:53;;;;;;;;;;;;;;;9.23;100.00;100090.34;5087411;28;19946;-59
2022/12/23 12:45:21;;;;;;;;;;;;;;;9.26;100.00;100084.72;5089903;28;19912;-60
2022/12/23 12:48:04;;;;;;;;;;;;;;;9.28;100.00;100082.69;5091360;28;19912;-59
2022/12/23 12:50:32;;;;;;;;;;;;;;;9.31;100.00;100069.09;5100858;28;20003;-59
2022/12/23 12:53:00;;;;;;;;;;;;;;;9.31;100.00;100053.19;5093546;28;19951;-59
2022/12/23 12:55:32;;;;;;;;;;;;;;;9.32;100.00;100041.59;5094609;28;19912;-58
2022/12/23 12:57:57;;;;;;;;;;;;;;;9.29;100.00;100056.03;5095496;28;19922;-57
2022/12/23 13:00:23;;;;;;;;;;;;;;;9.28;100.00;100041.13;5094445;28;19971;-57
2022/12/23 13:02:48;;;;;;;;;;;;;;;9.30;100.00;100038.31;5095281;28;19920;-61